createdAt,value
2022-12-04T00:01:30.821Z,-0.26
2022-12-04T00:04:01.300Z,-0.35
2022-12-04T00:06:30.162Z,-0.32
2022-12-04T00:09:02.148Z,-0.31
2022-12-04T00:11:32.600Z,-0.32
2022-12-04T00:14:06.462Z,-0.22
2022-12-04T00:16:36.010Z,-0.23
2022-12-04T00:19:04.327Z,-0.24
2022-12-04T00:21:32.906Z,-0.26
2022-12-04T00:24:02.584Z,-0.17
2022-12-04T00:26:32.150Z,-0.18
2022-12-04T00:29:00.283Z,-0.19
2022-12-04T00:31:30.117Z,-0.22
2022-12-04T00:33:59.130Z,-0.17
2022-12-04T00:36:29.385Z,-0.15
2022-12-04T00:38:57.531Z,-0.20
2022-12-04T00:41:29.009Z,-0.19
2022-12-04T00:43:57.167Z,-0.23
2022-12-04T00:46:25.346Z,-0.17
2022-12-04T00:48:54.301Z,-0.10
2022-12-04T00:51:24.659Z,-0.06
2022-12-04T00:53:54.131Z,-0.13
2022-12-04T00:56:24.880Z,-0.28
2022-12-04T00:58:55.552Z,-0.24
2022-12-04T01:01:24.695Z,-0.27
2022-12-04T01:03:53.557Z,-0.20
2022-12-04T01:06:23.896Z,-0.27
2022-12-04T01:08:53.541Z,-0.22
2022-12-04T01:11:24.611Z,-0.20
2022-12-04T01:13:54.151Z,-0.14
2022-12-04T01:16:24.922Z,-0.13
2022-12-04T01:18:53.144Z,-0.08
2022-12-04T01:21:21.849Z,-0.07
2022-12-04T01:23:49.933Z,-0.08
2022-12-04T01:26:20.982Z,-0.08
2022-12-04T01:28:49.831Z,-0.08
2022-12-04T01:31:23.215Z,-0.03
2022-12-04T01:33:51.764Z,-0.04
2022-12-04T01:36:22.986Z,-0.06
2022-12-04T01:38:51.160Z,-0.09
2022-12-04T01:41:23.035Z,-0.12
2022-12-04T01:44:16.257Z,0.00
2022-12-04T01:46:47.320Z,-0.11
2022-12-04T01:49:18.745Z,-0.07
2022-12-04T01:51:51.041Z,-0.04
2022-12-04T01:54:28.503Z,-0.04
2022-12-04T01:57:01.438Z,-0.04
2022-12-04T01:59:33.697Z,-0.06
2022-12-04T02:02:04.619Z,-0.06
2022-12-04T02:04:35.699Z,-0.14
2022-12-04T02:07:04.556Z,-0.08
2022-12-04T02:09:33.968Z,-0.07
2022-12-04T02:12:14.206Z,-0.13
2022-12-04T02:14:50.081Z,-0.09
2022-12-04T02:17:27.582Z,-0.09
2022-12-04T02:20:23.775Z,-0.04
2022-12-04T02:23:20.430Z,-0.09
2022-12-04T02:25:59.133Z,-0.05
2022-12-04T02:28:32.553Z,-0.04
2022-12-04T02:31:03.489Z,-0.10
2022-12-04T02:33:42.817Z,-0.07
2022-12-04T02:36:14.227Z,-0.14
2022-12-04T02:38:47.094Z,-0.03
2022-12-04T02:41:21.302Z,-0.01
2022-12-04T02:43:54.009Z,0.02
2022-12-04T02:46:26.104Z,0.03
2022-12-04T02:48:58.793Z,0.00
2022-12-04T02:51:31.762Z,-0.04
2022-12-04T02:54:05.840Z,-0.03
2022-12-04T02:56:40.315Z,-0.05
2022-12-04T02:59:14.119Z,-0.12
2022-12-04T03:01:47.178Z,-0.04
2022-12-04T03:04:18.657Z,-0.04
2022-12-04T03:06:50.592Z,-0.10
2022-12-04T03:09:23.138Z,-0.12
2022-12-04T03:11:53.799Z,-0.09
2022-12-04T03:14:26.945Z,-0.10
2022-12-04T03:16:59.425Z,-0.15
2022-12-04T03:19:29.303Z,-0.11
2022-12-04T03:21:59.310Z,-0.09
2022-12-04T03:24:30.791Z,-0.11
2022-12-04T03:27:05.341Z,-0.08
2022-12-04T03:29:40.404Z,-0.15
2022-12-04T03:32:13.373Z,-0.11
2022-12-04T03:34:52.978Z,-0.04
2022-12-04T03:37:29.838Z,-0.10
2022-12-04T03:40:04.273Z,-0.05
2022-12-04T03:42:39.821Z,-0.03
2022-12-04T03:45:18.735Z,-0.06
2022-12-04T03:47:54.882Z,-0.16
2022-12-04T03:50:30.292Z,-0.14
2022-12-04T03:53:03.935Z,-0.17
2022-12-04T03:55:38.047Z,-0.18
2022-12-04T03:58:10.562Z,-0.21
2022-12-04T04:00:44.072Z,-0.15
2022-12-04T04:03:17.342Z,-0.14
2022-12-04T04:05:49.106Z,-0.15
2022-12-04T04:08:31.113Z,-0.11
2022-12-04T04:11:04.091Z,-0.06
2022-12-04T04:13:54.357Z,-0.01
2022-12-04T04:16:42.797Z,-0.18
2022-12-04T04:19:31.278Z,-0.08
2022-12-04T04:22:19.130Z,-0.07
2022-12-04T04:24:54.159Z,-0.05
2022-12-04T04:27:22.259Z,-0.17
2022-12-04T04:29:52.557Z,-0.11
2022-12-04T04:32:34.690Z,-0.18
2022-12-04T04:35:11.261Z,-0.11
2022-12-04T04:37:49.653Z,-0.25
2022-12-04T04:40:23.204Z,-0.24
2022-12-04T04:42:56.133Z,-0.21
2022-12-04T04:45:29.393Z,-0.24
2022-12-04T04:48:04.155Z,-0.19
2022-12-04T04:50:34.229Z,-0.19
2022-12-04T04:53:05.321Z,-0.18
2022-12-04T04:55:37.189Z,-0.23
2022-12-04T04:58:09.707Z,-0.22
2022-12-04T05:00:38.210Z,-0.20
2022-12-04T05:03:08.342Z,-0.24
2022-12-04T05:05:36.400Z,-0.24
2022-12-04T05:08:04.551Z,-0.28
2022-12-04T05:10:32.916Z,-0.24
2022-12-04T05:13:00.935Z,-0.25
2022-12-04T05:15:28.956Z,-0.28
2022-12-04T05:17:57.057Z,-0.20
2022-12-04T05:20:26.580Z,-0.25
2022-12-04T05:22:55.055Z,-0.27
2022-12-04T05:25:23.166Z,-0.18
2022-12-04T05:27:51.486Z,-0.27
2022-12-04T05:30:19.598Z,-0.32
2022-12-04T05:32:47.641Z,-0.27
2022-12-04T05:35:16.173Z,-0.29
2022-12-04T05:37:48.061Z,-0.28
2022-12-04T05:40:16.242Z,-0.27
2022-12-04T05:42:44.372Z,-0.27
2022-12-04T05:45:12.446Z,-0.26
2022-12-04T05:47:41.956Z,-0.28
2022-12-04T05:50:11.750Z,-0.23
2022-12-04T05:52:39.823Z,-0.28
2022-12-04T05:55:11.676Z,-0.25
2022-12-04T05:57:39.663Z,-0.21
2022-12-04T06:00:09.270Z,-0.28
2022-12-04T06:02:37.485Z,-0.26
2022-12-04T06:05:06.373Z,-0.20
2022-12-04T06:07:34.439Z,-0.19
2022-12-04T06:10:05.355Z,-0.18
2022-12-04T06:12:34.957Z,-0.23
2022-12-04T06:15:03.216Z,-0.14
2022-12-04T06:17:31.191Z,-0.09
2022-12-04T06:20:00.317Z,-0.13
2022-12-04T06:22:28.664Z,-0.04
2022-12-04T06:24:59.668Z,0.04
2022-12-04T06:27:28.671Z,-0.05
2022-12-04T06:29:59.194Z,-0.07
2022-12-04T06:32:27.497Z,-0.06
2022-12-04T06:34:56.444Z,-0.05
2022-12-04T06:37:26.125Z,-0.15
2022-12-04T06:39:54.850Z,-0.05
2022-12-04T06:42:23.455Z,-0.09
2022-12-04T06:44:51.561Z,-0.10
2022-12-04T06:47:21.020Z,-0.05
2022-12-04T06:49:51.112Z,-0.09
2022-12-04T06:52:19.675Z,-0.07
2022-12-04T06:54:49.758Z,0.01
2022-12-04T06:57:17.795Z,-0.08
2022-12-04T06:59:46.081Z,0.01
2022-12-04T07:02:14.188Z,-0.02
2022-12-04T07:04:43.693Z,-0.02
2022-12-04T07:07:12.799Z,0.03
2022-12-04T07:09:44.261Z,-0.04
2022-12-04T07:12:12.439Z,-0.07
2022-12-04T07:14:41.004Z,-0.07
2022-12-04T07:17:09.109Z,-0.05
2022-12-04T07:19:38.192Z,0.04
2022-12-04T07:22:08.958Z,0.04
2022-12-04T07:24:38.214Z,0.06
2022-12-04T07:27:06.395Z,0.13
2022-12-04T07:29:34.471Z,0.05
2022-12-04T07:32:02.610Z,-0.02
2022-12-04T07:34:30.731Z,0.02
2022-12-04T07:36:58.792Z,-0.07
2022-12-04T07:39:28.488Z,0.01
2022-12-04T07:41:56.662Z,-0.03
2022-12-04T07:44:24.783Z,0.00
2022-12-04T07:46:52.855Z,0.06
2022-12-04T07:49:21.163Z,0.01
2022-12-04T07:51:49.222Z,-0.06
2022-12-04T07:54:17.274Z,0.01
2022-12-04T07:56:49.345Z,-0.02
2022-12-04T07:59:19.818Z,0.01
2022-12-04T08:01:47.989Z,-0.04
2022-12-04T08:04:16.612Z,-0.03
2022-12-04T08:06:44.692Z,0.06
2022-12-04T08:09:12.751Z,0.07
2022-12-04T08:11:40.842Z,0.05
2022-12-04T08:14:13.595Z,0.08
2022-12-04T08:16:42.086Z,0.06
2022-12-04T08:19:10.283Z,0.01
2022-12-04T08:21:38.700Z,0.00
2022-12-04T08:24:07.329Z,0.10
2022-12-04T08:26:35.403Z,0.04
2022-12-04T08:29:04.933Z,0.06
2022-12-04T08:31:36.659Z,0.01
2022-12-04T08:34:07.445Z,0.09
2022-12-04T08:36:36.314Z,-0.02
2022-12-04T08:39:05.207Z,0.02
2022-12-04T08:41:33.615Z,0.07
2022-12-04T08:44:01.651Z,0.02
2022-12-04T08:46:29.902Z,0.11
2022-12-04T08:48:59.581Z,0.08
2022-12-04T08:51:31.760Z,0.02
2022-12-04T08:54:02.225Z,0.02
2022-12-04T08:56:32.262Z,0.06
2022-12-04T08:59:01.312Z,0.04
2022-12-04T09:01:30.125Z,0.07
2022-12-04T09:04:00.000Z,0.10
2022-12-04T09:06:28.366Z,0.09
2022-12-04T09:08:57.553Z,0.13
2022-12-04T09:11:27.406Z,0.12
2022-12-04T09:13:56.385Z,0.14
2022-12-04T09:16:26.233Z,0.12
2022-12-04T09:18:55.266Z,0.22
2022-12-04T09:21:26.154Z,0.17
2022-12-04T09:23:54.381Z,0.25
2022-12-04T09:26:25.707Z,0.10
2022-12-04T09:28:54.941Z,0.16
2022-12-04T09:31:23.984Z,0.22
2022-12-04T09:33:52.416Z,0.19
2022-12-04T09:36:21.122Z,0.14
2022-12-04T09:38:52.780Z,0.11
2022-12-04T09:41:50.024Z,0.19
2022-12-04T09:44:22.846Z,0.22
2022-12-04T09:46:54.333Z,0.20
2022-12-04T09:49:27.606Z,0.21
2022-12-04T09:51:59.499Z,0.24
2022-12-04T09:54:35.030Z,0.28
2022-12-04T09:57:11.942Z,0.29
2022-12-04T09:59:39.974Z,0.24
2022-12-04T10:02:36.941Z,0.36
2022-12-04T10:05:07.051Z,0.28
2022-12-04T10:07:42.519Z,0.29
2022-12-04T10:10:20.432Z,0.26
2022-12-04T10:12:55.477Z,0.28
2022-12-04T10:15:30.797Z,0.29
2022-12-04T10:18:09.682Z,0.38
2022-12-04T10:20:55.670Z,0.39
2022-12-04T10:23:38.980Z,0.36
2022-12-04T10:26:14.534Z,0.40
2022-12-04T10:28:50.545Z,0.45
2022-12-04T10:31:21.868Z,0.44
2022-12-04T10:33:54.760Z,0.44
2022-12-04T10:36:28.496Z,0.36
2022-12-04T10:38:59.016Z,0.48
2022-12-04T10:41:30.918Z,0.52
2022-12-04T10:43:58.979Z,0.52
2022-12-04T10:46:29.542Z,0.52
2022-12-04T10:49:01.147Z,0.51
2022-12-04T10:51:36.699Z,0.47
2022-12-04T10:54:17.300Z,0.48
2022-12-04T10:56:54.548Z,0.59
2022-12-04T10:59:23.396Z,0.52
2022-12-04T11:01:52.947Z,0.50
2022-12-04T11:04:24.850Z,0.65
2022-12-04T11:07:01.011Z,0.62
2022-12-04T11:09:30.504Z,0.71
2022-12-04T11:12:09.828Z,0.70
2022-12-04T11:14:39.877Z,0.72
2022-12-04T11:17:17.675Z,0.64
2022-12-04T11:19:45.987Z,0.67
2022-12-04T11:22:16.570Z,0.70
2022-12-04T11:24:53.076Z,0.71
2022-12-04T11:27:27.926Z,0.73
2022-12-04T11:29:57.442Z,0.73
2022-12-04T11:32:27.948Z,0.78
2022-12-04T11:35:02.172Z,0.70
2022-12-04T11:37:34.593Z,0.71
2022-12-04T11:40:06.557Z,0.80
2022-12-04T11:42:36.056Z,0.88
2022-12-04T11:45:20.919Z,0.87
2022-12-04T11:47:55.786Z,0.79
2022-12-04T11:50:32.362Z,0.82
2022-12-04T11:53:08.142Z,0.83
2022-12-04T11:55:47.497Z,0.87
2022-12-04T11:58:47.825Z,0.90
2022-12-04T12:01:27.781Z,0.95
2022-12-04T12:04:20.007Z,0.90
2022-12-04T12:07:03.484Z,0.95
2022-12-04T12:09:41.525Z,0.98
2022-12-04T12:12:15.551Z,1.00
2022-12-04T12:14:56.568Z,1.01
2022-12-04T12:17:32.087Z,1.00
2022-12-04T12:20:11.913Z,1.01
2022-12-04T12:23:12.999Z,1.04
2022-12-04T12:25:52.118Z,0.92
2022-12-04T12:28:42.990Z,0.93
2022-12-04T12:31:33.371Z,0.93
2022-12-04T12:34:06.609Z,0.90
2022-12-04T12:36:43.605Z,0.86
2022-12-04T12:39:17.289Z,0.95
2022-12-04T12:41:52.063Z,0.97
2022-12-04T12:44:27.111Z,1.07
2022-12-04T12:47:00.903Z,1.06
2022-12-04T12:49:33.391Z,1.02
2022-12-04T12:52:06.111Z,0.93
2022-12-04T12:54:42.122Z,1.01
2022-12-04T12:57:16.835Z,0.96
2022-12-04T12:59:49.200Z,0.93
2022-12-04T13:02:27.061Z,1.03
2022-12-04T13:04:58.972Z,1.02
2022-12-04T13:07:34.095Z,1.06
2022-12-04T13:10:06.617Z,1.05
2022-12-04T13:12:38.038Z,1.05
2022-12-04T13:15:07.174Z,1.11
2022-12-04T13:17:40.067Z,1.07
2022-12-04T13:20:18.245Z,1.05
2022-12-04T13:22:56.558Z,0.98
2022-12-04T13:25:37.760Z,1.03
2022-12-04T13:28:18.973Z,1.01
2022-12-04T13:30:53.246Z,1.00
2022-12-04T13:33:55.696Z,1.03
2022-12-04T13:36:40.787Z,1.05
2022-12-04T13:39:45.981Z,1.05
2022-12-04T13:42:22.945Z,1.01
2022-12-04T13:44:56.099Z,1.06
2022-12-04T13:47:31.769Z,1.05
2022-12-04T13:50:28.908Z,1.05
2022-12-04T13:52:57.133Z,1.06
2022-12-04T13:55:31.264Z,1.06
2022-12-04T13:58:01.705Z,0.90
2022-12-04T14:00:33.408Z,0.96
2022-12-04T14:03:05.845Z,0.97
2022-12-04T14:05:42.851Z,1.00
2022-12-04T14:08:25.212Z,1.01
2022-12-04T14:11:03.681Z,0.98
2022-12-04T14:13:44.428Z,1.06
2022-12-04T14:16:21.657Z,1.01
2022-12-04T14:18:52.204Z,1.08
2022-12-04T14:21:21.908Z,0.99
2022-12-04T14:23:50.872Z,0.98
2022-12-04T14:26:37.370Z,0.98
2022-12-04T14:29:34.789Z,1.00
2022-12-04T14:32:10.723Z,1.02
2022-12-04T14:34:39.597Z,0.97
2022-12-04T14:37:22.993Z,0.96
2022-12-04T14:39:52.685Z,1.01
2022-12-04T14:42:25.434Z,0.97
2022-12-04T14:44:56.917Z,0.97
2022-12-04T14:47:42.109Z,1.00
2022-12-04T14:50:31.150Z,0.95
2022-12-04T14:53:13.773Z,0.98
2022-12-04T14:55:52.347Z,0.96
2022-12-04T14:58:31.300Z,0.94
2022-12-04T15:01:01.730Z,1.00
2022-12-04T15:03:37.048Z,1.03
2022-12-04T15:06:08.089Z,1.07
2022-12-04T15:08:37.543Z,1.10
2022-12-04T15:11:25.313Z,1.10
2022-12-04T15:13:53.324Z,1.08
2022-12-04T15:16:23.665Z,1.04
2022-12-04T15:18:55.835Z,1.07
2022-12-04T15:21:25.973Z,1.00
2022-12-04T15:23:55.467Z,0.95
2022-12-04T15:26:26.922Z,1.00
2022-12-04T15:28:58.514Z,1.01
2022-12-04T15:31:30.614Z,0.96
2022-12-04T15:34:02.533Z,0.96
2022-12-04T15:36:45.431Z,1.03
2022-12-04T15:39:20.192Z,0.96
2022-12-04T15:41:48.951Z,0.96
2022-12-04T15:44:25.157Z,1.00
2022-12-04T15:46:56.190Z,0.91
2022-12-04T15:49:28.319Z,0.90
2022-12-04T15:52:06.958Z,0.89
2022-12-04T15:54:37.579Z,0.87
2022-12-04T15:57:14.472Z,0.77
2022-12-04T15:59:42.693Z,0.76
2022-12-04T16:02:25.103Z,0.77
2022-12-04T16:04:53.501Z,0.82
2022-12-04T16:07:24.696Z,0.76
2022-12-04T16:10:01.294Z,0.81
2022-12-04T16:12:33.384Z,0.82
2022-12-04T16:15:01.469Z,0.78
2022-12-04T16:17:33.029Z,0.84
2022-12-04T16:20:02.084Z,0.86
2022-12-04T16:22:31.555Z,0.79
2022-12-04T16:25:01.085Z,0.77
2022-12-04T16:27:29.312Z,0.81
2022-12-04T16:29:57.469Z,0.86
2022-12-04T16:32:29.797Z,0.90
2022-12-04T16:34:58.062Z,0.86
2022-12-04T16:37:27.583Z,0.82
2022-12-04T16:39:55.648Z,0.85
2022-12-04T16:42:26.926Z,0.89
2022-12-04T16:44:56.302Z,0.87
2022-12-04T16:47:24.638Z,0.91
2022-12-04T16:49:53.492Z,0.87
2022-12-04T16:52:22.254Z,0.94
2022-12-04T16:54:50.266Z,0.93
2022-12-04T16:57:18.331Z,0.91
2022-12-04T16:59:47.748Z,0.91
2022-12-04T17:02:18.604Z,0.91
2022-12-04T17:04:46.760Z,0.90
2022-12-04T17:07:14.772Z,0.94
2022-12-04T17:09:43.415Z,0.97
2022-12-04T17:12:11.524Z,0.89
2022-12-04T17:14:40.144Z,0.93
2022-12-04T17:17:09.517Z,0.87
2022-12-04T17:19:37.878Z,0.93
2022-12-04T17:22:06.278Z,0.93
2022-12-04T17:24:37.838Z,0.91
2022-12-04T17:27:12.903Z,0.91
2022-12-04T17:29:41.151Z,0.98
2022-12-04T17:32:10.539Z,0.97
2022-12-04T17:34:38.830Z,1.03
2022-12-04T17:37:07.181Z,1.08
2022-12-04T17:39:35.399Z,1.09
2022-12-04T17:42:03.909Z,1.04
2022-12-04T17:44:31.970Z,1.03
2022-12-04T17:47:00.014Z,1.11
2022-12-04T17:49:30.934Z,1.09
2022-12-04T17:51:59.004Z,1.01
2022-12-04T17:54:27.032Z,1.06
2022-12-04T17:56:58.022Z,1.11
2022-12-04T17:59:26.609Z,1.06
2022-12-04T18:01:54.798Z,1.14
2022-12-04T18:04:23.013Z,1.08
2022-12-04T18:06:53.141Z,1.05
2022-12-04T18:09:21.235Z,1.06
2022-12-04T18:11:49.482Z,1.11
2022-12-04T18:14:22.147Z,1.13
2022-12-04T18:16:53.398Z,1.18
2022-12-04T18:19:22.957Z,1.12
2022-12-04T18:21:52.586Z,1.06
2022-12-04T18:24:20.915Z,0.99
2022-12-04T18:26:50.376Z,1.11
2022-12-04T18:29:21.022Z,1.15
2022-12-04T18:31:51.055Z,1.11
2022-12-04T18:34:19.723Z,1.09
2022-12-04T18:36:48.075Z,1.15
2022-12-04T18:39:20.130Z,1.08
2022-12-04T18:41:48.969Z,1.14
2022-12-04T18:44:18.588Z,1.15
2022-12-04T18:46:46.981Z,1.13
2022-12-04T18:49:15.121Z,1.08
2022-12-04T18:51:49.345Z,1.14
2022-12-04T18:54:22.053Z,1.20
2022-12-04T18:56:50.850Z,1.20
2022-12-04T18:59:21.787Z,1.22
2022-12-04T19:01:50.957Z,1.23
2022-12-04T19:04:20.346Z,1.22
2022-12-04T19:06:50.348Z,1.16
2022-12-04T19:09:35.389Z,1.22
2022-12-04T19:12:10.531Z,1.14
2022-12-04T19:14:39.847Z,1.14
2022-12-04T19:17:08.574Z,1.16
2022-12-04T19:19:37.001Z,1.22
2022-12-04T19:22:05.193Z,1.17
2022-12-04T19:24:34.868Z,1.18
2022-12-04T19:27:10.241Z,1.18
2022-12-04T19:29:38.800Z,1.18
2022-12-04T19:32:07.043Z,1.14
2022-12-04T19:34:35.375Z,1.16
2022-12-04T19:37:03.946Z,1.12
2022-12-04T19:39:32.042Z,1.13
2022-12-04T19:42:04.150Z,1.10
2022-12-04T19:44:49.248Z,1.09
2022-12-04T19:47:18.417Z,1.14
2022-12-04T19:49:46.649Z,1.22
2022-12-04T19:52:15.561Z,1.17
2022-12-04T19:54:43.762Z,1.16
2022-12-04T19:57:14.810Z,1.16
2022-12-04T19:59:46.317Z,1.15
2022-12-04T20:02:15.033Z,1.20
2022-12-04T20:04:43.407Z,1.17
2022-12-04T20:07:11.835Z,1.16
2022-12-04T20:09:46.059Z,1.16
2022-12-04T20:12:18.459Z,1.21
2022-12-04T20:14:46.540Z,1.24
2022-12-04T20:17:14.647Z,1.26
2022-12-04T20:19:42.950Z,1.25
2022-12-04T20:22:11.139Z,1.29
2022-12-04T20:24:39.234Z,1.27
2022-12-04T20:27:07.255Z,1.32
2022-12-04T20:29:36.757Z,1.31
2022-12-04T20:32:05.253Z,1.30
2022-12-04T20:34:33.328Z,1.31
2022-12-04T20:37:01.350Z,1.38
2022-12-04T20:39:29.741Z,1.39
2022-12-04T20:41:57.905Z,1.39
2022-12-04T20:44:26.201Z,1.41
2022-12-04T20:46:55.599Z,1.42
2022-12-04T20:49:23.745Z,1.45
2022-12-04T20:51:52.997Z,1.41
2022-12-04T20:54:23.448Z,1.46
2022-12-04T20:56:53.258Z,1.49
2022-12-04T20:59:23.913Z,1.50
2022-12-04T21:01:52.952Z,1.45
2022-12-04T21:04:23.347Z,1.51
2022-12-04T21:06:51.416Z,1.52
2022-12-04T21:09:21.377Z,1.52
2022-12-04T21:11:51.355Z,1.47
2022-12-04T21:14:39.111Z,1.49
2022-12-04T21:17:09.838Z,1.50
2022-12-04T21:19:39.352Z,1.51
2022-12-04T21:22:07.630Z,1.54
2022-12-04T21:24:38.764Z,1.55
2022-12-04T21:27:07.986Z,1.56
2022-12-04T21:29:39.143Z,1.54
2022-12-04T21:32:08.008Z,1.63
2022-12-04T21:34:36.494Z,1.61
2022-12-04T21:37:06.282Z,1.55
2022-12-04T21:39:35.999Z,1.57
2022-12-04T21:42:21.771Z,1.59
2022-12-04T21:44:49.899Z,1.59
2022-12-04T21:47:18.445Z,1.61
2022-12-04T21:49:47.745Z,1.63
2022-12-04T21:52:18.933Z,1.59
2022-12-04T21:54:50.777Z,1.62
2022-12-04T21:57:19.580Z,1.63
2022-12-04T21:59:48.054Z,1.61
2022-12-04T22:02:16.969Z,1.66
2022-12-04T22:04:45.170Z,1.64
2022-12-04T22:07:13.218Z,1.70
2022-12-04T22:09:42.931Z,1.73
2022-12-04T22:12:26.785Z,1.78
2022-12-04T22:14:59.031Z,1.74
2022-12-04T22:17:30.196Z,1.78
2022-12-04T22:19:58.512Z,1.81
2022-12-04T22:22:26.747Z,1.76
2022-12-04T22:24:56.212Z,1.80
2022-12-04T22:27:24.359Z,1.84
2022-12-04T22:29:53.009Z,1.83
2022-12-04T22:32:21.234Z,1.83
2022-12-04T22:34:49.732Z,1.79
2022-12-04T22:37:18.220Z,1.83
2022-12-04T22:39:46.219Z,1.81
2022-12-04T22:42:15.636Z,1.86
2022-12-04T22:44:43.744Z,1.83
2022-12-04T22:47:12.028Z,1.89
2022-12-04T22:49:40.115Z,1.84
2022-12-04T22:52:08.264Z,1.81
2022-12-04T22:54:36.437Z,1.85
2022-12-04T22:57:04.497Z,1.84
2022-12-04T22:59:34.896Z,1.94
2022-12-04T23:02:03.009Z,1.89
2022-12-04T23:04:31.276Z,1.89
2022-12-04T23:06:59.560Z,1.97
2022-12-04T23:09:28.056Z,1.92
2022-12-04T23:11:57.003Z,1.98
2022-12-04T23:14:27.135Z,1.97
2022-12-04T23:16:57.535Z,1.97
2022-12-04T23:19:25.707Z,1.95
2022-12-04T23:21:57.292Z,2.01
2022-12-04T23:24:26.252Z,2.01
2022-12-04T23:26:54.800Z,2.02
2022-12-04T23:29:51.633Z,2.03
2022-12-04T23:32:12.324Z,2.09
2022-12-04T23:34:40.327Z,2.03
2022-12-04T23:37:08.385Z,2.02
2022-12-04T23:39:36.420Z,1.99
2022-12-04T23:42:04.813Z,2.01
2022-12-04T23:44:33.269Z,2.02
2022-12-04T23:47:01.675Z,2.02
2022-12-04T23:49:31.289Z,2.04
2022-12-04T23:52:02.160Z,1.98
2022-12-04T23:54:34.988Z,2.04
2022-12-04T23:57:03.436Z,2.06
2022-12-04T23:59:31.597Z,2.05
